EST,Max TemperatureF,Mean TemperatureF,Min TemperatureF,Max Dew PointF,MeanDew PointF,Min DewpointF,Max Humidity, Mean Humidity, Min Humidity, Max Sea Level PressureIn, Mean Sea Level PressureIn, Min Sea Level PressureIn, Max VisibilityMiles, Mean VisibilityMiles, Min VisibilityMiles, Max Wind SpeedMPH, Mean Wind SpeedMPH, Max Gust SpeedMPH,PrecipitationIn, CloudCover, Events, WindDirDegrees
2011-11-1,61,45,29,38,32,28,93,77,41,30.24,30.18,30.13,9,3,0,16,7,21,0.00,0,Fog,172
2011-11-2,63,55,46,44,39,34,68,55,42,30.15,30.08,29.99,9,7,6,17,9,23,0.00,0,,183
2011-11-3,51,46,40,45,40,33,89,78,65,30.19,30.05,30.00,10,6,1,18,9,29,T,7,,32
2011-11-4,54,43,31,34,30,27,86,66,37,30.35,30.30,30.19,10,9,6,10,5,16,0.00,0,,45
2011-11-5,56,44,31,32,28,24,88,58,31,30.35,30.28,30.17,10,8,4,14,5,18,0.00,0,,142
2011-11-6,63,50,37,44,38,27,70,58,48,30.18,30.14,30.07,10,8,4,25,12,35,0.00,3,,188
2011-11-7,60,57,53,52,47,42,94,77,57,30.24,30.21,30.15,9,4,0,15,4,20,0.03,8,Fog-Rain,212
2011-11-8,63,57,50,56,53,48,97,89,65,30.20,30.05,29.95,8,2,0,16,4,21,0.41,8,Fog-Rain,150
2011-11-9,62,51,39,56,48,34,94,86,57,29.94,29.76,29.55,10,4,0,36,14,46,0.31,8,Fog-Rain,183
2011-11-10,42,38,33,36,31,28,96,85,65,29.95,29.92,29.88,10,3,0,23,8,30,0.25,7,Fog-Rain-Snow,244
2011-11-11,41,37,33,32,30,26,93,80,55,30.01,29.94,29.81,9,5,1,17,8,21,0.03,6,Snow,212
2011-11-12,59,45,31,38,33,26,85,62,46,29.87,29.81,29.71,10,8,4,21,11,28,0.00,0,,188
2011-11-13,64,59,53,52,45,33,69,61,42,29.70,29.54,29.40,10,8,6,28,20,40,0.00,6,,204
2011-11-14,53,47,41,43,39,30,89,74,54,29.73,29.64,29.56,10,6,2,14,5,17,0.10,4,Rain,184
2011-11-15,60,46,32,46,40,30,100,86,58,29.83,29.79,29.74,10,3,0,21,6,24,0.00,1,Fog,195
2011-11-16,48,39,30,43,27,17,90,62,48,30.12,29.98,29.82,10,9,4,23,10,29,0.00,0,,280
2011-11-17,33,30,26,19,17,16,69,59,52,30.25,30.14,30.07,10,8,4,21,10,28,T,4,Snow,246
2011-11-18,48,36,23,19,17,14,72,46,27,30.27,30.14,29.97,10,9,7,30,16,37,0.00,2,,192
2011-11-19,57,49,41,46,34,19,76,59,37,30.01,29.90,29.81,10,8,6,28,16,36,T,8,,190
2011-11-20,59,47,35,50,38,28,77,71,58,30.33,30.12,29.84,10,8,4,26,11,37,T,5,,318
2011-11-21,48,40,31,32,29,26,86,72,52,30.38,30.32,30.25,10,7,4,9,4,14,0.00,1,,77
2011-11-22,41,37,33,36,32,28,93,85,77,30.27,30.02,29.83,6,3,1,16,9,23,0.74,6,Rain,55
2011-11-23,51,40,28,37,33,26,93,82,56,30.25,30.14,29.91,10,6,2,15,6,20,0.00,1,,288
2011-11-24,47,41,35,40,37,33,100,88,76,30.27,30.20,30.12,10,5,2,20,12,25,0.00,5,,209
2011-11-25,58,49,39,41,39,35,87,70,53,30.12,30.01,29.94,10,9,7,21,14,26,0.00,0,,193
2011-11-26,61,54,47,54,46,38,94,74,62,29.98,29.90,29.79,10,9,4,21,12,25,0.17,5,Rain,183
2011-11-27,55,45,35,53,42,30,94,89,81,30.12,29.88,29.71,10,8,2,17,11,23,0.34,8,Rain,304
2011-11-28,38,36,33,32,28,26,89,77,70,30.16,30.07,29.92,10,10,6,14,8,18,0.05,8,Rain,26
2011-11-29,37,35,32,32,30,25,96,85,75,29.95,29.84,29.74,10,6,0,25,15,37,0.85,8,Fog-Rain-Snow,7
2011-11-30,41,35,28,28,25,23,82,72,55,30.17,30.00,29.81,10,10,10,22,8,29,0.00,1,,293